sensor_id;sensor_type;location;lat;lon;timestamp;P1;durP1;ratioP1;P2;durP2;ratioP2
46308;SDS011;32037;50.820;6.494;2023-01-28T00:01:04;2.10;;;1.90;;
46308;SDS011;32037;50.820;6.494;2023-01-28T00:03:33;2.08;;;1.73;;
46308;SDS011;32037;50.820;6.494;2023-01-28T00:06:02;1.90;;;1.40;;
46308;SDS011;32037;50.820;6.494;2023-01-28T00:08:32;1.65;;;1.52;;
46308;SDS011;32037;50.820;6.494;2023-01-28T00:11:00;1.92;;;1.77;;
46308;SDS011;32037;50.820;6.494;2023-01-28T00:13:32;1.80;;;1.70;;
46308;SDS011;32037;50.820;6.494;2023-01-28T00:16:03;3.47;;;2.30;;
46308;SDS011;32037;50.820;6.494;2023-01-28T00:18:34;2.80;;;1.90;;
46308;SDS011;32037;50.820;6.494;2023-01-28T00:21:04;1.77;;;1.67;;
46308;SDS011;32037;50.820;6.494;2023-01-28T00:23:34;2.25;;;1.80;;
46308;SDS011;32037;50.820;6.494;2023-01-28T00:26:05;1.83;;;1.40;;
46308;SDS011;32037;50.820;6.494;2023-01-28T00:28:37;2.65;;;1.83;;
46308;SDS011;32037;50.820;6.494;2023-01-28T00:31:06;1.90;;;1.70;;
46308;SDS011;32037;50.820;6.494;2023-01-28T00:33:35;2.00;;;1.80;;
46308;SDS011;32037;50.820;6.494;2023-01-28T00:36:04;2.00;;;1.90;;
46308;SDS011;32037;50.820;6.494;2023-01-28T00:38:33;1.60;;;1.50;;
46308;SDS011;32037;50.820;6.494;2023-01-28T00:41:08;2.10;;;1.90;;
46308;SDS011;32037;50.820;6.494;2023-01-28T00:43:39;2.65;;;2.17;;
46308;SDS011;32037;50.820;6.494;2023-01-28T00:46:08;1.33;;;1.23;;
46308;SDS011;32037;50.820;6.494;2023-01-28T00:48:39;2.67;;;1.85;;
46308;SDS011;32037;50.820;6.494;2023-01-28T00:51:11;1.65;;;1.55;;
46308;SDS011;32037;50.820;6.494;2023-01-28T00:53:41;1.60;;;1.50;;
46308;SDS011;32037;50.820;6.494;2023-01-28T00:56:12;2.28;;;2.03;;
46308;SDS011;32037;50.820;6.494;2023-01-28T00:58:43;3.15;;;1.77;;
46308;SDS011;32037;50.820;6.494;2023-01-28T01:01:12;2.00;;;1.77;;
46308;SDS011;32037;50.820;6.494;2023-01-28T01:03:41;2.08;;;1.60;;
46308;SDS011;32037;50.820;6.494;2023-01-28T01:06:11;2.25;;;1.75;;
46308;SDS011;32037;50.820;6.494;2023-01-28T01:08:40;2.15;;;1.40;;
46308;SDS011;32037;50.820;6.494;2023-01-28T01:11:16;1.50;;;1.20;;
46308;SDS011;32037;50.820;6.494;2023-01-28T01:13:50;1.55;;;1.45;;
46308;SDS011;32037;50.820;6.494;2023-01-28T01:16:20;2.10;;;1.50;;
46308;SDS011;32037;50.820;6.494;2023-01-28T01:18:50;1.60;;;1.35;;
46308;SDS011;32037;50.820;6.494;2023-01-28T01:21:19;1.98;;;1.52;;
46308;SDS011;32037;50.820;6.494;2023-01-28T01:23:50;1.52;;;1.42;;
46308;SDS011;32037;50.820;6.494;2023-01-28T01:26:20;1.40;;;1.30;;
46308;SDS011;32037;50.820;6.494;2023-01-28T01:28:51;1.60;;;1.30;;
46308;SDS011;32037;50.820;6.494;2023-01-28T01:31:20;1.77;;;1.40;;
46308;SDS011;32037;50.820;6.494;2023-01-28T01:33:49;1.88;;;1.38;;
46308;SDS011;32037;50.820;6.494;2023-01-28T01:36:19;2.25;;;1.40;;
46308;SDS011;32037;50.820;6.494;2023-01-28T01:38:51;1.75;;;1.30;;
46308;SDS011;32037;50.820;6.494;2023-01-28T01:41:22;1.48;;;1.35;;
46308;SDS011;32037;50.820;6.494;2023-01-28T01:43:55;2.25;;;1.75;;
46308;SDS011;32037;50.820;6.494;2023-01-28T01:46:26;1.33;;;1.23;;
46308;SDS011;32037;50.820;6.494;2023-01-28T01:49:01;2.05;;;1.40;;
46308;SDS011;32037;50.820;6.494;2023-01-28T01:51:34;1.15;;;0.95;;
46308;SDS011;32037;50.820;6.494;2023-01-28T01:54:03;1.90;;;1.30;;
46308;SDS011;32037;50.820;6.494;2023-01-28T01:56:34;1.92;;;1.30;;
46308;SDS011;32037;50.820;6.494;2023-01-28T01:59:09;1.50;;;1.40;;
46308;SDS011;32037;50.820;6.494;2023-01-28T02:01:39;1.70;;;1.50;;
46308;SDS011;32037;50.820;6.494;2023-01-28T02:04:09;1.65;;;1.38;;
46308;SDS011;32037;50.820;6.494;2023-01-28T02:06:44;1.40;;;1.30;;
46308;SDS011;32037;50.820;6.494;2023-01-28T02:09:24;1.75;;;1.55;;
46308;SDS011;32037;50.820;6.494;2023-01-28T02:11:55;1.50;;;1.40;;
46308;SDS011;32037;50.820;6.494;2023-01-28T02:14:30;1.50;;;1.38;;
46308;SDS011;32037;50.820;6.494;2023-01-28T02:17:01;2.63;;;1.48;;
46308;SDS011;32037;50.820;6.494;2023-01-28T02:19:34;2.03;;;1.50;;
46308;SDS011;32037;50.820;6.494;2023-01-28T02:22:09;1.67;;;1.50;;
46308;SDS011;32037;50.820;6.494;2023-01-28T02:25:04;2.55;;;1.40;;
46308;SDS011;32037;50.820;6.494;2023-01-28T02:27:54;1.95;;;1.75;;
46308;SDS011;32037;50.820;6.494;2023-01-28T02:30:37;2.20;;;1.60;;
46308;SDS011;32037;50.820;6.494;2023-01-28T02:33:09;1.60;;;1.40;;
46308;SDS011;32037;50.820;6.494;2023-01-28T02:35:46;1.85;;;1.40;;
46308;SDS011;32037;50.820;6.494;2023-01-28T02:38:19;1.63;;;1.50;;
46308;SDS011;32037;50.820;6.494;2023-01-28T02:40:53;2.38;;;2.10;;
46308;SDS011;32037;50.820;6.494;2023-01-28T02:43:32;2.03;;;1.83;;
46308;SDS011;32037;50.820;6.494;2023-01-28T02:46:02;1.73;;;1.55;;
46308;SDS011;32037;50.820;6.494;2023-01-28T02:48:57;1.77;;;1.35;;
46308;SDS011;32037;50.820;6.494;2023-01-28T02:51:28;1.88;;;1.63;;
46308;SDS011;32037;50.820;6.494;2023-01-28T02:54:09;1.70;;;1.58;;
46308;SDS011;32037;50.820;6.494;2023-01-28T02:56:42;1.50;;;1.40;;
46308;SDS011;32037;50.820;6.494;2023-01-28T02:59:18;1.08;;;1.00;;
46308;SDS011;32037;50.820;6.494;2023-01-28T03:02:07;2.20;;;1.55;;
46308;SDS011;32037;50.820;6.494;2023-01-28T03:04:41;1.60;;;1.30;;
46308;SDS011;32037;50.820;6.494;2023-01-28T03:07:17;2.20;;;1.83;;
46308;SDS011;32037;50.820;6.494;2023-01-28T03:09:47;1.58;;;1.48;;
46308;SDS011;32037;50.820;6.494;2023-01-28T03:12:17;1.50;;;1.40;;
46308;SDS011;32037;50.820;6.494;2023-01-28T03:15:08;4.35;;;1.33;;
46308;SDS011;32037;50.820;6.494;2023-01-28T03:17:59;3.10;;;1.90;;
46308;SDS011;32037;50.820;6.494;2023-01-28T03:20:47;2.35;;;1.50;;
46308;SDS011;32037;50.820;6.494;2023-01-28T03:23:39;1.95;;;1.40;;
46308;SDS011;32037;50.820;6.494;2023-01-28T03:26:34;1.58;;;1.45;;
46308;SDS011;32037;50.820;6.494;2023-01-28T03:29:25;1.40;;;1.30;;
46308;SDS011;32037;50.820;6.494;2023-01-28T03:32:17;1.30;;;1.10;;
46308;SDS011;32037;50.820;6.494;2023-01-28T03:35:04;3.25;;;1.55;;
46308;SDS011;32037;50.820;6.494;2023-01-28T03:37:53;1.33;;;1.23;;
46308;SDS011;32037;50.820;6.494;2023-01-28T03:40:26;1.60;;;1.35;;
46308;SDS011;32037;50.820;6.494;2023-01-28T03:42:55;1.85;;;1.75;;
46308;SDS011;32037;50.820;6.494;2023-01-28T03:45:33;1.48;;;1.20;;
46308;SDS011;32037;50.820;6.494;2023-01-28T03:48:05;0.90;;;0.70;;
46308;SDS011;32037;50.820;6.494;2023-01-28T03:50:33;1.30;;;1.15;;
46308;SDS011;32037;50.820;6.494;2023-01-28T03:53:02;1.67;;;1.50;;
46308;SDS011;32037;50.820;6.494;2023-01-28T03:55:49;2.47;;;1.88;;
46308;SDS011;32037;50.820;6.494;2023-01-28T03:58:20;2.45;;;1.20;;
46308;SDS011;32037;50.820;6.494;2023-01-28T04:00:53;1.48;;;1.30;;
46308;SDS011;32037;50.820;6.494;2023-01-28T04:03:23;1.92;;;1.38;;
46308;SDS011;32037;50.820;6.494;2023-01-28T04:06:05;4.32;;;2.00;;
46308;SDS011;32037;50.820;6.494;2023-01-28T04:08:59;1.52;;;1.35;;
46308;SDS011;32037;50.820;6.494;2023-01-28T04:11:32;1.77;;;1.50;;
46308;SDS011;32037;50.820;6.494;2023-01-28T04:14:02;1.50;;;1.35;;
46308;SDS011;32037;50.820;6.494;2023-01-28T04:16:48;2.05;;;1.27;;
46308;SDS011;32037;50.820;6.494;2023-01-28T04:19:19;1.75;;;1.65;;
46308;SDS011;32037;50.820;6.494;2023-01-28T04:21:48;1.63;;;1.38;;
46308;SDS011;32037;50.820;6.494;2023-01-28T04:24:20;1.50;;;1.27;;
46308;SDS011;32037;50.820;6.494;2023-01-28T04:26:48;1.80;;;1.50;;
46308;SDS011;32037;50.820;6.494;2023-01-28T04:29:17;1.75;;;1.65;;
46308;SDS011;32037;50.820;6.494;2023-01-28T04:31:48;2.15;;;1.95;;
46308;SDS011;32037;50.820;6.494;2023-01-28T04:34:26;2.53;;;1.90;;
46308;SDS011;32037;50.820;6.494;2023-01-28T04:37:21;1.23;;;1.10;;
46308;SDS011;32037;50.820;6.494;2023-01-28T04:40:24;1.65;;;1.55;;
46308;SDS011;32037;50.820;6.494;2023-01-28T04:43:00;2.47;;;1.20;;
46308;SDS011;32037;50.820;6.494;2023-01-28T04:45:49;1.10;;;0.95;;
46308;SDS011;32037;50.820;6.494;2023-01-28T04:48:40;1.02;;;0.95;;
46308;SDS011;32037;50.820;6.494;2023-01-28T04:51:30;1.35;;;1.25;;
46308;SDS011;32037;50.820;6.494;2023-01-28T04:54:21;1.50;;;1.40;;
46308;SDS011;32037;50.820;6.494;2023-01-28T04:56:50;1.70;;;1.30;;
46308;SDS011;32037;50.820;6.494;2023-01-28T04:59:18;1.48;;;1.30;;
46308;SDS011;32037;50.820;6.494;2023-01-28T05:01:47;1.73;;;1.40;;
46308;SDS011;32037;50.820;6.494;2023-01-28T05:04:16;1.60;;;1.30;;
46308;SDS011;32037;50.820;6.494;2023-01-28T05:06:46;2.13;;;1.92;;
46308;SDS011;32037;50.820;6.494;2023-01-28T05:09:24;1.50;;;1.40;;
46308;SDS011;32037;50.820;6.494;2023-01-28T05:11:52;1.40;;;1.30;;
46308;SDS011;32037;50.820;6.494;2023-01-28T05:14:21;1.63;;;1.10;;
46308;SDS011;32037;50.820;6.494;2023-01-28T05:16:57;1.63;;;1.50;;
46308;SDS011;32037;50.820;6.494;2023-01-28T05:19:26;2.00;;;1.50;;
46308;SDS011;32037;50.820;6.494;2023-01-28T05:21:57;1.60;;;1.50;;
46308;SDS011;32037;50.820;6.494;2023-01-28T05:24:38;1.45;;;1.35;;
46308;SDS011;32037;50.820;6.494;2023-01-28T05:27:07;2.17;;;1.65;;
46308;SDS011;32037;50.820;6.494;2023-01-28T05:29:36;4.03;;;2.90;;
46308;SDS011;32037;50.820;6.494;2023-01-28T05:32:04;4.18;;;3.70;;
46308;SDS011;32037;50.820;6.494;2023-01-28T05:34:33;2.53;;;2.10;;
46308;SDS011;32037;50.820;6.494;2023-01-28T05:37:08;1.83;;;1.73;;
46308;SDS011;32037;50.820;6.494;2023-01-28T05:39:37;3.78;;;3.28;;
46308;SDS011;32037;50.820;6.494;2023-01-28T05:42:06;2.90;;;2.17;;
46308;SDS011;32037;50.820;6.494;2023-01-28T05:44:41;4.03;;;3.60;;
46308;SDS011;32037;50.820;6.494;2023-01-28T05:47:32;2.30;;;2.10;;
46308;SDS011;32037;50.820;6.494;2023-01-28T05:50:13;2.63;;;1.90;;
46308;SDS011;32037;50.820;6.494;2023-01-28T05:52:48;2.25;;;2.00;;
46308;SDS011;32037;50.820;6.494;2023-01-28T05:55:23;3.25;;;2.85;;
46308;SDS011;32037;50.820;6.494;2023-01-28T05:57:52;3.35;;;2.63;;
46308;SDS011;32037;50.820;6.494;2023-01-28T06:00:23;3.00;;;2.40;;
46308;SDS011;32037;50.820;6.494;2023-01-28T06:02:51;2.90;;;1.77;;
46308;SDS011;32037;50.820;6.494;2023-01-28T06:05:21;3.50;;;2.40;;
46308;SDS011;32037;50.820;6.494;2023-01-28T06:07:52;2.15;;;1.77;;
46308;SDS011;32037;50.820;6.494;2023-01-28T06:10:21;4.80;;;3.70;;
46308;SDS011;32037;50.820;6.494;2023-01-28T06:12:50;3.55;;;2.53;;
46308;SDS011;32037;50.820;6.494;2023-01-28T06:15:50;4.60;;;2.65;;
46308;SDS011;32037;50.820;6.494;2023-01-28T06:18:24;3.08;;;2.38;;
46308;SDS011;32037;50.820;6.494;2023-01-28T06:20:52;1.80;;;1.70;;
46308;SDS011;32037;50.820;6.494;2023-01-28T06:23:22;3.22;;;2.65;;
46308;SDS011;32037;50.820;6.494;2023-01-28T06:25:52;6.00;;;2.47;;
46308;SDS011;32037;50.820;6.494;2023-01-28T06:28:21;2.20;;;1.80;;
46308;SDS011;32037;50.820;6.494;2023-01-28T06:30:51;3.60;;;2.05;;
46308;SDS011;32037;50.820;6.494;2023-01-28T06:33:20;2.55;;;1.67;;
46308;SDS011;32037;50.820;6.494;2023-01-28T06:35:49;2.38;;;2.03;;
46308;SDS011;32037;50.820;6.494;2023-01-28T06:38:18;2.10;;;1.90;;
46308;SDS011;32037;50.820;6.494;2023-01-28T06:40:51;4.43;;;2.90;;
46308;SDS011;32037;50.820;6.494;2023-01-28T06:43:21;3.10;;;1.83;;
46308;SDS011;32037;50.820;6.494;2023-01-28T06:45:53;2.38;;;2.10;;
46308;SDS011;32037;50.820;6.494;2023-01-28T06:48:21;3.13;;;2.13;;
46308;SDS011;32037;50.820;6.494;2023-01-28T06:50:50;3.30;;;2.05;;
46308;SDS011;32037;50.820;6.494;2023-01-28T06:53:18;2.90;;;1.65;;
46308;SDS011;32037;50.820;6.494;2023-01-28T06:55:47;1.67;;;1.58;;
46308;SDS011;32037;50.820;6.494;2023-01-28T06:58:17;3.22;;;2.25;;
46308;SDS011;32037;50.820;6.494;2023-01-28T07:00:45;3.33;;;2.42;;
46308;SDS011;32037;50.820;6.494;2023-01-28T07:03:14;4.60;;;3.78;;
46308;SDS011;32037;50.820;6.494;2023-01-28T07:05:42;3.55;;;2.85;;
46308;SDS011;32037;50.820;6.494;2023-01-28T07:08:10;4.00;;;2.90;;
46308;SDS011;32037;50.820;6.494;2023-01-28T07:10:39;3.22;;;2.50;;
46308;SDS011;32037;50.820;6.494;2023-01-28T07:13:07;4.38;;;2.45;;
46308;SDS011;32037;50.820;6.494;2023-01-28T07:15:37;4.43;;;2.78;;
46308;SDS011;32037;50.820;6.494;2023-01-28T07:18:05;4.78;;;2.60;;
46308;SDS011;32037;50.820;6.494;2023-01-28T07:20:34;3.78;;;2.80;;
46308;SDS011;32037;50.820;6.494;2023-01-28T07:23:02;3.67;;;2.33;;
46308;SDS011;32037;50.820;6.494;2023-01-28T07:25:30;2.55;;;1.80;;
46308;SDS011;32037;50.820;6.494;2023-01-28T07:27:59;3.60;;;2.63;;
46308;SDS011;32037;50.820;6.494;2023-01-28T07:30:27;3.65;;;2.08;;
46308;SDS011;32037;50.820;6.494;2023-01-28T07:32:57;2.70;;;2.00;;
46308;SDS011;32037;50.820;6.494;2023-01-28T07:35:28;2.25;;;1.95;;
46308;SDS011;32037;50.820;6.494;2023-01-28T07:38:04;3.15;;;2.10;;
46308;SDS011;32037;50.820;6.494;2023-01-28T07:40:39;3.00;;;2.22;;
46308;SDS011;32037;50.820;6.494;2023-01-28T07:43:13;3.75;;;2.65;;
46308;SDS011;32037;50.820;6.494;2023-01-28T07:45:41;3.08;;;2.65;;
46308;SDS011;32037;50.820;6.494;2023-01-28T07:48:12;6.72;;;5.00;;
46308;SDS011;32037;50.820;6.494;2023-01-28T07:50:41;5.00;;;3.20;;
46308;SDS011;32037;50.820;6.494;2023-01-28T07:53:10;3.97;;;3.03;;
46308;SDS011;32037;50.820;6.494;2023-01-28T07:55:39;6.30;;;4.15;;
46308;SDS011;32037;50.820;6.494;2023-01-28T07:58:09;4.65;;;3.15;;
46308;SDS011;32037;50.820;6.494;2023-01-28T08:00:39;4.18;;;3.53;;
46308;SDS011;32037;50.820;6.494;2023-01-28T08:03:16;4.25;;;3.65;;
46308;SDS011;32037;50.820;6.494;2023-01-28T08:05:45;3.55;;;2.60;;
46308;SDS011;32037;50.820;6.494;2023-01-28T08:08:15;3.95;;;2.63;;
46308;SDS011;32037;50.820;6.494;2023-01-28T08:10:44;5.20;;;3.33;;
46308;SDS011;32037;50.820;6.494;2023-01-28T08:13:13;3.13;;;2.78;;
46308;SDS011;32037;50.820;6.494;2023-01-28T08:15:42;3.30;;;2.38;;
46308;SDS011;32037;50.820;6.494;2023-01-28T08:18:11;3.78;;;2.50;;
46308;SDS011;32037;50.820;6.494;2023-01-28T08:20:42;3.13;;;2.10;;
46308;SDS011;32037;50.820;6.494;2023-01-28T08:23:14;4.10;;;2.45;;
46308;SDS011;32037;50.820;6.494;2023-01-28T08:25:43;3.97;;;2.80;;
46308;SDS011;32037;50.820;6.494;2023-01-28T08:28:12;3.95;;;2.72;;
46308;SDS011;32037;50.820;6.494;2023-01-28T08:30:41;4.32;;;2.67;;
46308;SDS011;32037;50.820;6.494;2023-01-28T08:33:10;2.97;;;2.15;;
46308;SDS011;32037;50.820;6.494;2023-01-28T08:35:40;2.80;;;2.38;;
46308;SDS011;32037;50.820;6.494;2023-01-28T08:38:11;2.75;;;2.40;;
46308;SDS011;32037;50.820;6.494;2023-01-28T08:40:40;4.82;;;2.95;;
46308;SDS011;32037;50.820;6.494;2023-01-28T08:43:09;4.50;;;3.47;;
46308;SDS011;32037;50.820;6.494;2023-01-28T08:45:37;2.38;;;2.03;;
46308;SDS011;32037;50.820;6.494;2023-01-28T08:48:09;3.38;;;2.50;;
46308;SDS011;32037;50.820;6.494;2023-01-28T08:50:38;3.58;;;2.65;;
46308;SDS011;32037;50.820;6.494;2023-01-28T08:53:09;3.85;;;2.70;;
46308;SDS011;32037;50.820;6.494;2023-01-28T08:55:38;5.10;;;2.50;;
46308;SDS011;32037;50.820;6.494;2023-01-28T08:58:09;2.88;;;2.33;;
46308;SDS011;32037;50.820;6.494;2023-01-28T09:00:39;3.85;;;2.58;;
46308;SDS011;32037;50.820;6.494;2023-01-28T09:03:08;4.13;;;3.20;;
46308;SDS011;32037;50.820;6.494;2023-01-28T09:05:37;3.25;;;2.80;;
46308;SDS011;32037;50.820;6.494;2023-01-28T09:08:06;5.63;;;3.08;;
46308;SDS011;32037;50.820;6.494;2023-01-28T09:10:37;4.07;;;3.30;;
46308;SDS011;32037;50.820;6.494;2023-01-28T09:13:07;3.85;;;2.75;;
46308;SDS011;32037;50.820;6.494;2023-01-28T09:15:37;2.60;;;2.40;;
46308;SDS011;32037;50.820;6.494;2023-01-28T09:18:06;3.22;;;2.33;;
46308;SDS011;32037;50.820;6.494;2023-01-28T09:20:34;3.40;;;2.60;;
46308;SDS011;32037;50.820;6.494;2023-01-28T09:23:04;3.50;;;2.50;;
46308;SDS011;32037;50.820;6.494;2023-01-28T09:25:34;3.30;;;2.53;;
46308;SDS011;32037;50.820;6.494;2023-01-28T09:28:03;3.45;;;2.80;;
46308;SDS011;32037;50.820;6.494;2023-01-28T09:30:32;3.00;;;2.15;;
46308;SDS011;32037;50.820;6.494;2023-01-28T09:33:03;2.90;;;2.60;;
46308;SDS011;32037;50.820;6.494;2023-01-28T09:35:32;4.28;;;2.53;;
46308;SDS011;32037;50.820;6.494;2023-01-28T09:38:01;3.22;;;2.55;;
46308;SDS011;32037;50.820;6.494;2023-01-28T09:40:33;3.25;;;2.95;;
46308;SDS011;32037;50.820;6.494;2023-01-28T09:46:12;2.92;;;2.63;;
46308;SDS011;32037;50.820;6.494;2023-01-28T09:48:42;3.10;;;2.42;;
46308;SDS011;32037;50.820;6.494;2023-01-28T09:51:16;2.75;;;2.55;;
46308;SDS011;32037;50.820;6.494;2023-01-28T09:53:56;3.47;;;2.90;;
46308;SDS011;32037;50.820;6.494;2023-01-28T09:56:30;3.25;;;2.67;;
46308;SDS011;32037;50.820;6.494;2023-01-28T09:59:07;3.63;;;2.85;;
46308;SDS011;32037;50.820;6.494;2023-01-28T10:01:46;4.95;;;2.80;;
46308;SDS011;32037;50.820;6.494;2023-01-28T10:04:29;3.20;;;2.55;;
46308;SDS011;32037;50.820;6.494;2023-01-28T10:07:20;4.28;;;3.60;;
46308;SDS011;32037;50.820;6.494;2023-01-28T10:10:00;2.72;;;2.15;;
46308;SDS011;32037;50.820;6.494;2023-01-28T10:12:41;4.35;;;2.45;;
46308;SDS011;32037;50.820;6.494;2023-01-28T10:15:28;3.50;;;2.55;;
46308;SDS011;32037;50.820;6.494;2023-01-28T10:18:21;3.25;;;2.55;;
46308;SDS011;32037;50.820;6.494;2023-01-28T10:20:59;4.18;;;2.75;;
46308;SDS011;32037;50.820;6.494;2023-01-28T10:23:35;4.35;;;3.08;;
46308;SDS011;32037;50.820;6.494;2023-01-28T10:26:15;4.38;;;3.08;;
46308;SDS011;32037;50.820;6.494;2023-01-28T10:28:53;3.13;;;2.83;;
46308;SDS011;32037;50.820;6.494;2023-01-28T10:31:26;3.58;;;2.92;;
46308;SDS011;32037;50.820;6.494;2023-01-28T10:33:59;3.55;;;3.20;;
46308;SDS011;32037;50.820;6.494;2023-01-28T10:36:29;5.15;;;3.10;;
46308;SDS011;32037;50.820;6.494;2023-01-28T10:38:58;4.93;;;3.20;;
46308;SDS011;32037;50.820;6.494;2023-01-28T10:41:26;3.63;;;2.70;;
46308;SDS011;32037;50.820;6.494;2023-01-28T10:43:56;4.63;;;3.85;;
46308;SDS011;32037;50.820;6.494;2023-01-28T10:46:25;3.67;;;2.85;;
46308;SDS011;32037;50.820;6.494;2023-01-28T10:49:00;5.55;;;3.63;;
46308;SDS011;32037;50.820;6.494;2023-01-28T10:51:34;3.65;;;3.20;;
46308;SDS011;32037;50.820;6.494;2023-01-28T10:54:13;4.07;;;3.20;;
46308;SDS011;32037;50.820;6.494;2023-01-28T10:56:46;4.50;;;4.10;;
46308;SDS011;32037;50.820;6.494;2023-01-28T10:59:24;3.08;;;2.65;;
46308;SDS011;32037;50.820;6.494;2023-01-28T11:01:53;4.65;;;3.38;;
46308;SDS011;32037;50.820;6.494;2023-01-28T11:04:25;4.22;;;3.80;;
46308;SDS011;32037;50.820;6.494;2023-01-28T11:06:59;4.20;;;3.20;;
46308;SDS011;32037;50.820;6.494;2023-01-28T11:09:29;3.90;;;3.30;;
46308;SDS011;32037;50.820;6.494;2023-01-28T11:12:09;4.47;;;3.38;;
46308;SDS011;32037;50.820;6.494;2023-01-28T11:14:48;2.85;;;2.63;;
46308;SDS011;32037;50.820;6.494;2023-01-28T11:17:18;3.75;;;3.25;;
46308;SDS011;32037;50.820;6.494;2023-01-28T11:19:50;4.43;;;3.13;;
46308;SDS011;32037;50.820;6.494;2023-01-28T11:22:22;4.45;;;3.53;;
46308;SDS011;32037;50.820;6.494;2023-01-28T11:24:55;4.57;;;4.10;;
46308;SDS011;32037;50.820;6.494;2023-01-28T11:27:30;3.20;;;2.90;;
46308;SDS011;32037;50.820;6.494;2023-01-28T11:30:00;4.43;;;3.50;;
46308;SDS011;32037;50.820;6.494;2023-01-28T11:32:30;5.20;;;3.67;;
46308;SDS011;32037;50.820;6.494;2023-01-28T11:34:59;6.32;;;3.63;;
46308;SDS011;32037;50.820;6.494;2023-01-28T11:37:27;3.80;;;3.17;;
46308;SDS011;32037;50.820;6.494;2023-01-28T11:40:00;4.32;;;3.92;;
46308;SDS011;32037;50.820;6.494;2023-01-28T11:42:47;4.47;;;3.45;;
46308;SDS011;32037;50.820;6.494;2023-01-28T11:45:21;3.80;;;3.50;;
46308;SDS011;32037;50.820;6.494;2023-01-28T11:47:59;4.57;;;4.07;;
46308;SDS011;32037;50.820;6.494;2023-01-28T11:50:38;8.00;;;6.30;;
46308;SDS011;32037;50.820;6.494;2023-01-28T11:53:15;8.88;;;7.38;;
46308;SDS011;32037;50.820;6.494;2023-01-28T11:59:21;7.82;;;5.95;;
46308;SDS011;32037;50.820;6.494;2023-01-28T12:02:05;6.45;;;5.18;;
46308;SDS011;32037;50.820;6.494;2023-01-28T12:04:51;10.60;;;7.57;;
46308;SDS011;32037;50.820;6.494;2023-01-28T12:07:34;7.32;;;5.32;;
46308;SDS011;32037;50.820;6.494;2023-01-28T12:10:13;4.93;;;4.22;;
46308;SDS011;32037;50.820;6.494;2023-01-28T12:12:49;4.65;;;3.80;;
46308;SDS011;32037;50.820;6.494;2023-01-28T12:18:44;4.05;;;3.40;;
46308;SDS011;32037;50.820;6.494;2023-01-28T12:21:29;5.47;;;4.68;;
46308;SDS011;32037;50.820;6.494;2023-01-28T12:24:07;11.55;;;8.50;;
46308;SDS011;32037;50.820;6.494;2023-01-28T12:26:49;6.47;;;4.90;;
46308;SDS011;32037;50.820;6.494;2023-01-28T12:29:26;4.95;;;4.00;;
46308;SDS011;32037;50.820;6.494;2023-01-28T12:38:05;6.72;;;4.45;;
46308;SDS011;32037;50.820;6.494;2023-01-28T12:43:47;6.07;;;4.75;;
46308;SDS011;32037;50.820;6.494;2023-01-28T12:46:25;8.50;;;6.28;;
46308;SDS011;32037;50.820;6.494;2023-01-28T12:49:04;6.47;;;4.38;;
46308;SDS011;32037;50.820;6.494;2023-01-28T12:51:40;6.55;;;4.60;;
46308;SDS011;32037;50.820;6.494;2023-01-28T12:54:26;7.30;;;4.85;;
46308;SDS011;32037;50.820;6.494;2023-01-28T12:57:00;6.40;;;5.22;;
46308;SDS011;32037;50.820;6.494;2023-01-28T12:59:30;5.68;;;4.97;;
46308;SDS011;32037;50.820;6.494;2023-01-28T13:02:13;6.18;;;5.43;;
46308;SDS011;32037;50.820;6.494;2023-01-28T13:04:51;6.15;;;4.75;;
46308;SDS011;32037;50.820;6.494;2023-01-28T13:07:26;6.32;;;4.88;;
46308;SDS011;32037;50.820;6.494;2023-01-28T13:10:03;11.07;;;7.10;;
46308;SDS011;32037;50.820;6.494;2023-01-28T13:12:36;7.32;;;5.47;;
46308;SDS011;32037;50.820;6.494;2023-01-28T13:15:09;7.70;;;5.80;;
46308;SDS011;32037;50.820;6.494;2023-01-28T13:17:51;6.93;;;5.05;;
46308;SDS011;32037;50.820;6.494;2023-01-28T13:23:23;6.60;;;5.45;;
46308;SDS011;32037;50.820;6.494;2023-01-28T13:25:53;7.30;;;5.00;;
46308;SDS011;32037;50.820;6.494;2023-01-28T13:28:25;6.32;;;5.13;;
46308;SDS011;32037;50.820;6.494;2023-01-28T13:31:02;7.20;;;5.03;;
46308;SDS011;32037;50.820;6.494;2023-01-28T13:33:33;7.13;;;4.72;;
46308;SDS011;32037;50.820;6.494;2023-01-28T13:36:06;6.38;;;4.72;;
46308;SDS011;32037;50.820;6.494;2023-01-28T13:38:47;5.55;;;4.97;;
46308;SDS011;32037;50.820;6.494;2023-01-28T13:41:35;5.57;;;4.45;;
46308;SDS011;32037;50.820;6.494;2023-01-28T13:44:15;11.70;;;9.63;;
46308;SDS011;32037;50.820;6.494;2023-01-28T13:46:45;9.55;;;7.30;;
46308;SDS011;32037;50.820;6.494;2023-01-28T13:49:14;11.32;;;8.10;;
46308;SDS011;32037;50.820;6.494;2023-01-28T13:51:53;9.70;;;7.55;;
46308;SDS011;32037;50.820;6.494;2023-01-28T13:54:27;8.60;;;6.25;;
46308;SDS011;32037;50.820;6.494;2023-01-28T13:57:07;8.57;;;5.95;;
46308;SDS011;32037;50.820;6.494;2023-01-28T14:00:04;7.57;;;5.88;;
46308;SDS011;32037;50.820;6.494;2023-01-28T14:02:42;8.95;;;6.38;;
46308;SDS011;32037;50.820;6.494;2023-01-28T14:05:52;9.38;;;6.68;;
46308;SDS011;32037;50.820;6.494;2023-01-28T14:11:49;8.52;;;5.93;;
46308;SDS011;32037;50.820;6.494;2023-01-28T14:14:40;7.60;;;6.53;;
46308;SDS011;32037;50.820;6.494;2023-01-28T14:17:31;6.70;;;5.18;;
46308;SDS011;32037;50.820;6.494;2023-01-28T14:20:12;4.93;;;4.43;;
46308;SDS011;32037;50.820;6.494;2023-01-28T14:22:45;6.53;;;5.20;;
46308;SDS011;32037;50.820;6.494;2023-01-28T14:25:15;7.50;;;5.20;;
46308;SDS011;32037;50.820;6.494;2023-01-28T14:27:49;8.30;;;5.30;;
46308;SDS011;32037;50.820;6.494;2023-01-28T14:30:21;9.25;;;5.55;;
46308;SDS011;32037;50.820;6.494;2023-01-28T14:32:55;8.00;;;5.22;;
46308;SDS011;32037;50.820;6.494;2023-01-28T14:35:26;8.02;;;5.18;;
46308;SDS011;32037;50.820;6.494;2023-01-28T14:37:57;4.93;;;4.22;;
46308;SDS011;32037;50.820;6.494;2023-01-28T14:40:27;5.22;;;4.72;;
46308;SDS011;32037;50.820;6.494;2023-01-28T14:42:58;6.57;;;5.28;;
46308;SDS011;32037;50.820;6.494;2023-01-28T14:45:32;5.85;;;3.97;;
46308;SDS011;32037;50.820;6.494;2023-01-28T14:48:23;7.53;;;5.43;;
46308;SDS011;32037;50.820;6.494;2023-01-28T14:51:00;6.53;;;5.10;;
46308;SDS011;32037;50.820;6.494;2023-01-28T14:53:38;6.45;;;5.20;;
46308;SDS011;32037;50.820;6.494;2023-01-28T14:57:05;6.53;;;4.90;;
46308;SDS011;32037;50.820;6.494;2023-01-28T14:59:56;5.97;;;4.85;;
46308;SDS011;32037;50.820;6.494;2023-01-28T15:02:27;5.15;;;4.57;;
46308;SDS011;32037;50.820;6.494;2023-01-28T15:05:06;7.35;;;5.00;;
46308;SDS011;32037;50.820;6.494;2023-01-28T15:07:35;5.25;;;4.60;;
46308;SDS011;32037;50.820;6.494;2023-01-28T15:10:04;6.60;;;5.05;;
46308;SDS011;32037;50.820;6.494;2023-01-28T15:12:35;8.20;;;5.70;;
46308;SDS011;32037;50.820;6.494;2023-01-28T15:15:10;6.68;;;5.45;;
46308;SDS011;32037;50.820;6.494;2023-01-28T15:17:46;6.45;;;5.15;;
46308;SDS011;32037;50.820;6.494;2023-01-28T15:20:17;6.50;;;5.60;;
46308;SDS011;32037;50.820;6.494;2023-01-28T15:22:46;5.75;;;4.70;;
46308;SDS011;32037;50.820;6.494;2023-01-28T15:25:18;5.70;;;4.65;;
46308;SDS011;32037;50.820;6.494;2023-01-28T15:27:48;6.97;;;5.18;;
46308;SDS011;32037;50.820;6.494;2023-01-28T15:30:21;6.45;;;4.65;;
46308;SDS011;32037;50.820;6.494;2023-01-28T15:32:58;6.25;;;4.53;;
46308;SDS011;32037;50.820;6.494;2023-01-28T15:35:29;6.55;;;5.32;;
46308;SDS011;32037;50.820;6.494;2023-01-28T15:37:59;5.32;;;4.53;;
46308;SDS011;32037;50.820;6.494;2023-01-28T15:40:27;5.80;;;4.63;;
46308;SDS011;32037;50.820;6.494;2023-01-28T15:42:57;4.60;;;4.10;;
46308;SDS011;32037;50.820;6.494;2023-01-28T15:45:29;7.57;;;5.30;;
46308;SDS011;32037;50.820;6.494;2023-01-28T15:48:02;6.50;;;4.70;;
46308;SDS011;32037;50.820;6.494;2023-01-28T15:50:34;5.35;;;4.68;;
46308;SDS011;32037;50.820;6.494;2023-01-28T15:53:06;7.63;;;5.22;;
46308;SDS011;32037;50.820;6.494;2023-01-28T15:55:37;6.07;;;4.65;;